• Join FlightAware (Why Join?)
  • Login
  • US Flag GB Flag 
23:37 EST


 

Airport Tracker/Info


-or-


 

Live Flight TrackerFlight Track Log ✈ UAL5961 ✈ 09-May-2013 ✈ KBNA - KIAD

Flight Track Log - Related Links

Times and Time Zones

All times are in EDT time to prevent confusion due to time zone crossing. See the UAL5961 flight status page for this flight to view local times or setup timezone preferences in your user account.

Time Position Orientation Groundspeed Altitude Reporting Facility
EDT Latitude Longitude Course Direction KTS MPH feet Rate Location/Type
19:21 36.0833 -86.6833 122° Southeast 185 213 2,700  Level Nashville TRACON
19:21 36.0667 -86.6500 122° Southeast 214 246 3,800 1,860 Climbing Nashville TRACON
19:23 36.0833 -86.5333 80° East 271 312 6,500 1,800 Climbing Nashville TRACON
19:24 36.1069 -86.3875 79° East 289 333 9,300 1,740 Climbing Indianapolis Center
19:25 36.1394 -86.2758 70° East 316 364 11,000 1,680 Climbing Memphis Center
19:26 36.1731 -86.1636 70° East 337 388 12,500 1,380 Climbing Memphis Center
19:27 36.2128 -86.0431 68° East 352 405 13,800 1,260 Climbing Memphis Center
19:28 36.2650 -85.9297 60° Northeast 372 428 15,100 1,140 Climbing Memphis Center
19:29 36.3092 -85.8242 63° Northeast 377 434 16,100 1,320 Climbing Memphis Center
19:32 36.4400 -85.5500 59° Northeast 381 438 19,600 1,500 Climbing Indianapolis Center
19:33 36.4936 -85.4383 59° Northeast 377 434 21,100 1,500 Climbing Indianapolis Center
19:34 36.5461 -85.3247 60° Northeast 377 434 22,700 1,500 Climbing Indianapolis Center
19:35 36.6003 -85.2089 60° Northeast 383 441 24,200 1,440 Climbing Indianapolis Center
19:36 36.6422 -85.0881 67° East 381 438 25,700 1,440 Climbing Indianapolis Center
19:37 36.6800 -84.9653 69° East 379 436 27,200 1,260 Climbing Indianapolis Center
19:38 36.7181 -84.8422 69° East 380 437 28,300 840 Climbing Indianapolis Center
19:39 36.7561 -84.7150 69° East 391 450 29,000 300 Climbing Indianapolis Center
19:40 36.8050 -84.5525 69° East 416 479 29,000  Level Indianapolis Center
19:41 36.8514 -84.4058 68° East 446 513 29,000  Level Indianapolis Center
19:42 36.8942 -84.2542 71° East 460 529 29,000  Level Indianapolis Center
19:43 36.9419 -84.0986 69° East 476 548 29,000  Level Indianapolis Center
19:44 36.9878 -83.9428 70° East 478 550 29,000  Level Indianapolis Center
19:45 37.0364 -83.7853 69° East 482 555 29,000  Level Indianapolis Center
19:46 37.0822 -83.6267 70° East 481 554 29,000  Level Indianapolis Center
19:47 37.1289 -83.4694 70° East 482 555 29,000  Level Indianapolis Center
19:48 37.1739 -83.3103 70° East 482 555 29,000  Level Indianapolis Center
19:49 37.2289 -83.1250 70° East 483 556 29,000  Level Indianapolis Center
19:50 37.2736 -82.9650 71° East 483 556 29,000  Level Indianapolis Center
19:51 37.3194 -82.8069 70° East 478 550 29,000  Level Indianapolis Center
19:52 37.3633 -82.6483 71° East 478 550 29,000  Level Indianapolis Center
19:53 37.4086 -82.4903 70° East 478 550 29,000  Level Indianapolis Center
19:54 37.4528 -82.3308 71° East 481 554 29,000  Level Indianapolis Center
19:55 37.4967 -82.1736 71° East 477 549 29,000  Level Indianapolis Center
19:56 37.5411 -82.0147 71° East 479 551 29,000  Level Indianapolis Center
19:57 37.5842 -81.8564 71° East 477 549 29,000  Level Indianapolis Center
19:58 37.6342 -81.6706 71° East 479 551 29,000  Level Indianapolis Center
19:59 37.6778 -81.5114 71° East 478 550 29,000  Level Indianapolis Center
20:00 37.7200 -81.3542 71° East 477 549 29,000  Level Indianapolis Center
20:01 37.7658 -81.1769 72° East 478 550 29,000  Level Washington Center
20:02 37.8164 -81.0256 67° East 469 540 29,000  Level Washington Center
20:03 37.8692 -80.8769 66° East 469 540 29,000  Level Washington Center
20:04 37.9217 -80.7253 66° East 469 540 29,000  Level Washington Center
20:05 37.9939 -80.5906 56° Northeast 469 540 29,000 -540 Level Washington Center
20:06 38.0653 -80.4819 50° Northeast 461 531 28,000 -1,200 Descending Washington Center
20:07 38.1522 -80.3925 39° Northeast 416 479 26,700 -1,980 Descending Washington Center
20:08 38.2406 -80.3214 32° Northeast 398 458 24,100 -1,380 Descending Washington Center
20:09 38.3308 -80.2556 30° Northeast 374 430 24,000 -60 Descending Washington Center
20:10 38.3903 -80.1217 60° Northeast 384 442 24,000  Level Washington Center
20:11 38.4181 -79.9856 75° East 384 442 24,000  Level Washington Center
20:12 38.4439 -79.8492 76° East 389 448 24,000  Level Washington Center
20:13 38.4739 -79.7078 75° East 400 460 24,000  Level Washington Center
20:14 38.4972 -79.5683 78° East 400 460 24,000  Level Washington Center
20:15 38.5244 -79.4425 75° East 400 460 24,000 -660 Level Washington Center
20:16 38.5453 -79.3056 79° East 400 460 22,700 -1,680 Descending Washington Center
20:17 38.5731 -79.1528 77° East 400 460 20,700 -1,920 Descending Washington Center
20:18 38.5933 -79.0236 79° East 392 451 19,000 -1,740 Descending Washington Center
20:19 38.6136 -78.8944 79° East 380 437 17,300 -1,680 Descending Washington Center
20:20 38.6378 -78.7731 76° East 365 420 15,600 -1,800 Descending Washington Center
20:21 38.6681 -78.6547 72° East 354 407 13,800 -1,860 Descending Washington Center
20:22 38.6939 -78.5389 74° East 349 402 12,000 -1,380 Descending Washington Center
20:23 38.7194 -78.4256 74° East 338 389 11,100 -900 Descending Washington Center
20:24 38.7611 -78.3339 60° Northeast 312 359 10,300 -900 Descending Washington Center
20:25 38.8172 -78.2586 46° Northeast 292 336 9,300 -960 Descending Washington Center
20:26 38.8628 -78.1750 55° Northeast 287 330 8,400 -1,140 Descending Washington Center
20:27 38.8856 -78.0772 73° East 282 325 7,100 -1,200 Descending Washington Center
20:28 38.9106 -77.9819 71° East 282 325 6,100 -600 Descending Washington Center
20:29 38.9333 -77.8839 73° East 282 325 6,000  Descending Washington Center
20:30 38.9578 -77.7967 70° East 282 325 6,100  Climbing Washington Center
20:31 38.9597 -77.6872 89° East 276 318 6,000 -60 Descending Washington Center
20:32 38.9167 -77.6000 122° Southeast 252 290 6,000  Level Potomac TRACON
20:33 38.8667 -77.5833 165° South 251 289 6,100  Climbing Potomac TRACON
20:34 38.7833 -77.5833 180° South 240 276 6,000 -300 Descending Potomac TRACON
20:35 38.7333 -77.5833 180° South 220 253 5,600 -840 Descending Potomac TRACON
20:36 38.7000 -77.5167 123° Southeast 230 265 4,400 -1,200 Descending Potomac TRACON
20:37 38.7500 -77.4667 38° Northeast 203 234 3,300 -720 Descending Potomac TRACON
20:38 38.8000 -77.4667 360° North 175 201 3,000 -600 Descending Potomac TRACON
20:39 38.8500 -77.4667 360° North 168 193 2,200 -780 Descending Potomac TRACON
20:40 38.8833 -77.4667 360° North 138 159 1,600 -780 Descending Potomac TRACON
20:41 38.9167 -77.4667 360° North 142 163 700 -840 Descending Potomac TRACON
20:43 38.9333 -77.4500 165° South  Level FlightAware Approximate